sensor_id;sensor_type;location;lat;lon;timestamp;P1;durP1;ratioP1;P2;durP2;ratioP2
34695;SDS011;20918;51.138;17.370;2022-11-20T00:00:16;54.33;;;26.73;;
34695;SDS011;20918;51.138;17.370;2022-11-20T00:03:21;54.33;;;26.33;;
34695;SDS011;20918;51.138;17.370;2022-11-20T00:06:24;50.63;;;26.23;;
34695;SDS011;20918;51.138;17.370;2022-11-20T00:09:29;53.83;;;25.72;;
34695;SDS011;20918;51.138;17.370;2022-11-20T00:12:31;53.42;;;25.92;;
34695;SDS011;20918;51.138;17.370;2022-11-20T00:15:33;53.08;;;25.65;;
34695;SDS011;20918;51.138;17.370;2022-11-20T00:18:34;50.78;;;25.35;;
34695;SDS011;20918;51.138;17.370;2022-11-20T00:21:43;54.10;;;25.77;;
34695;SDS011;20918;51.138;17.370;2022-11-20T00:24:44;55.33;;;26.50;;
34695;SDS011;20918;51.138;17.370;2022-11-20T00:27:45;53.20;;;25.50;;
34695;SDS011;20918;51.138;17.370;2022-11-20T00:30:46;55.70;;;27.10;;
34695;SDS011;20918;51.138;17.370;2022-11-20T00:33:50;53.40;;;26.05;;
34695;SDS011;20918;51.138;17.370;2022-11-20T00:36:53;57.90;;;27.57;;
34695;SDS011;20918;51.138;17.370;2022-11-20T00:39:54;58.00;;;26.50;;
34695;SDS011;20918;51.138;17.370;2022-11-20T00:43:02;59.42;;;27.58;;
34695;SDS011;20918;51.138;17.370;2022-11-20T00:46:18;54.33;;;25.97;;
34695;SDS011;20918;51.138;17.370;2022-11-20T00:49:23;58.73;;;27.48;;
34695;SDS011;20918;51.138;17.370;2022-11-20T00:52:27;53.08;;;26.37;;
34695;SDS011;20918;51.138;17.370;2022-11-20T00:55:32;59.20;;;26.35;;
34695;SDS011;20918;51.138;17.370;2022-11-20T00:58:37;56.50;;;26.40;;
34695;SDS011;20918;51.138;17.370;2022-11-20T01:01:44;52.38;;;25.97;;
34695;SDS011;20918;51.138;17.370;2022-11-20T01:04:48;55.60;;;26.75;;
34695;SDS011;20918;51.138;17.370;2022-11-20T01:07:51;58.45;;;26.90;;
34695;SDS011;20918;51.138;17.370;2022-11-20T01:10:53;55.80;;;26.57;;
34695;SDS011;20918;51.138;17.370;2022-11-20T01:14:03;57.80;;;27.23;;
34695;SDS011;20918;51.138;17.370;2022-11-20T01:17:11;58.75;;;27.80;;
34695;SDS011;20918;51.138;17.370;2022-11-20T01:20:17;58.02;;;28.07;;
34695;SDS011;20918;51.138;17.370;2022-11-20T01:23:20;61.08;;;27.40;;
34695;SDS011;20918;51.138;17.370;2022-11-20T01:26:24;61.65;;;26.82;;
34695;SDS011;20918;51.138;17.370;2022-11-20T01:29:28;57.60;;;27.17;;
34695;SDS011;20918;51.138;17.370;2022-11-20T01:32:40;59.05;;;29.77;;
34695;SDS011;20918;51.138;17.370;2022-11-20T01:35:41;58.50;;;29.23;;
34695;SDS011;20918;51.138;17.370;2022-11-20T01:38:44;61.27;;;28.63;;
34695;SDS011;20918;51.138;17.370;2022-11-20T01:41:48;55.52;;;27.60;;
34695;SDS011;20918;51.138;17.370;2022-11-20T01:49:02;57.53;;;26.93;;
34695;SDS011;20918;51.138;17.370;2022-11-20T01:52:20;59.77;;;28.40;;
34695;SDS011;20918;51.138;17.370;2022-11-20T01:55:41;62.23;;;28.70;;
34695;SDS011;20918;51.138;17.370;2022-11-20T01:58:56;58.92;;;27.30;;
34695;SDS011;20918;51.138;17.370;2022-11-20T02:01:59;59.83;;;28.67;;
34695;SDS011;20918;51.138;17.370;2022-11-20T02:05:51;65.97;;;30.27;;
34695;SDS011;20918;51.138;17.370;2022-11-20T02:08:34;59.25;;;28.45;;
34695;SDS011;20918;51.138;17.370;2022-11-20T02:11:43;57.40;;;29.00;;
34695;SDS011;20918;51.138;17.370;2022-11-20T02:14:46;60.52;;;28.30;;
34695;SDS011;20918;51.138;17.370;2022-11-20T02:17:48;62.15;;;28.75;;
34695;SDS011;20918;51.138;17.370;2022-11-20T02:20:58;58.33;;;28.45;;
34695;SDS011;20918;51.138;17.370;2022-11-20T02:24:11;57.88;;;27.82;;
34695;SDS011;20918;51.138;17.370;2022-11-20T02:27:18;60.80;;;28.10;;
34695;SDS011;20918;51.138;17.370;2022-11-20T02:30:24;65.47;;;28.13;;
34695;SDS011;20918;51.138;17.370;2022-11-20T02:33:29;58.30;;;28.15;;
34695;SDS011;20918;51.138;17.370;2022-11-20T02:36:34;62.60;;;27.17;;
34695;SDS011;20918;51.138;17.370;2022-11-20T02:39:41;58.50;;;27.82;;
34695;SDS011;20918;51.138;17.370;2022-11-20T02:42:46;60.83;;;28.60;;
34695;SDS011;20918;51.138;17.370;2022-11-20T02:45:53;53.00;;;26.40;;
34695;SDS011;20918;51.138;17.370;2022-11-20T02:48:57;58.50;;;27.70;;
34695;SDS011;20918;51.138;17.370;2022-11-20T02:51:59;58.20;;;29.67;;
34695;SDS011;20918;51.138;17.370;2022-11-20T02:55:02;57.93;;;28.75;;
34695;SDS011;20918;51.138;17.370;2022-11-20T02:58:06;62.50;;;28.43;;
34695;SDS011;20918;51.138;17.370;2022-11-20T03:01:07;58.03;;;27.50;;
34695;SDS011;20918;51.138;17.370;2022-11-20T03:04:11;56.47;;;27.20;;
34695;SDS011;20918;51.138;17.370;2022-11-20T03:07:13;60.10;;;26.37;;
34695;SDS011;20918;51.138;17.370;2022-11-20T03:10:15;57.37;;;27.93;;
34695;SDS011;20918;51.138;17.370;2022-11-20T03:13:16;55.67;;;27.23;;
34695;SDS011;20918;51.138;17.370;2022-11-20T03:16:19;58.33;;;27.70;;
34695;SDS011;20918;51.138;17.370;2022-11-20T03:19:24;55.73;;;27.80;;
34695;SDS011;20918;51.138;17.370;2022-11-20T03:22:28;60.07;;;28.87;;
34695;SDS011;20918;51.138;17.370;2022-11-20T03:25:31;63.93;;;29.13;;
34695;SDS011;20918;51.138;17.370;2022-11-20T03:28:34;64.13;;;30.20;;
34695;SDS011;20918;51.138;17.370;2022-11-20T03:31:36;72.13;;;30.50;;
34695;SDS011;20918;51.138;17.370;2022-11-20T03:34:42;59.97;;;29.33;;
34695;SDS011;20918;51.138;17.370;2022-11-20T03:37:43;61.25;;;29.52;;
34695;SDS011;20918;51.138;17.370;2022-11-20T03:40:50;65.07;;;30.83;;
34695;SDS011;20918;51.138;17.370;2022-11-20T03:44:01;56.98;;;28.65;;
34695;SDS011;20918;51.138;17.370;2022-11-20T03:47:01;56.93;;;27.63;;
34695;SDS011;20918;51.138;17.370;2022-11-20T03:50:03;57.60;;;27.63;;
34695;SDS011;20918;51.138;17.370;2022-11-20T03:53:11;59.77;;;27.40;;
34695;SDS011;20918;51.138;17.370;2022-11-20T03:56:12;53.33;;;27.23;;
34695;SDS011;20918;51.138;17.370;2022-11-20T03:59:20;69.50;;;28.90;;
34695;SDS011;20918;51.138;17.370;2022-11-20T04:02:28;66.07;;;30.73;;
34695;SDS011;20918;51.138;17.370;2022-11-20T04:05:30;64.53;;;28.97;;
34695;SDS011;20918;51.138;17.370;2022-11-20T04:08:31;68.67;;;31.67;;
34695;SDS011;20918;51.138;17.370;2022-11-20T04:11:36;66.37;;;29.90;;
34695;SDS011;20918;51.138;17.370;2022-11-20T04:14:39;60.57;;;27.80;;
34695;SDS011;20918;51.138;17.370;2022-11-20T04:17:43;66.10;;;30.80;;
34695;SDS011;20918;51.138;17.370;2022-11-20T04:20:47;61.97;;;29.70;;
34695;SDS011;20918;51.138;17.370;2022-11-20T04:23:50;68.77;;;29.67;;
34695;SDS011;20918;51.138;17.370;2022-11-20T04:26:53;58.73;;;27.27;;
34695;SDS011;20918;51.138;17.370;2022-11-20T04:29:56;59.23;;;26.83;;
34695;SDS011;20918;51.138;17.370;2022-11-20T04:32:57;59.73;;;27.33;;
34695;SDS011;20918;51.138;17.370;2022-11-20T04:36:02;56.07;;;27.10;;
34695;SDS011;20918;51.138;17.370;2022-11-20T04:39:12;63.08;;;27.75;;
34695;SDS011;20918;51.138;17.370;2022-11-20T04:42:15;59.87;;;28.27;;
34695;SDS011;20918;51.138;17.370;2022-11-20T04:45:32;52.80;;;27.00;;
34695;SDS011;20918;51.138;17.370;2022-11-20T04:48:34;54.37;;;25.33;;
34695;SDS011;20918;51.138;17.370;2022-11-20T04:51:35;58.60;;;28.33;;
34695;SDS011;20918;51.138;17.370;2022-11-20T04:54:38;55.83;;;26.80;;
34695;SDS011;20918;51.138;17.370;2022-11-20T04:57:39;52.23;;;26.67;;
34695;SDS011;20918;51.138;17.370;2022-11-20T05:00:40;51.43;;;24.70;;
34695;SDS011;20918;51.138;17.370;2022-11-20T05:03:41;57.87;;;27.03;;
34695;SDS011;20918;51.138;17.370;2022-11-20T05:06:44;57.17;;;26.07;;
34695;SDS011;20918;51.138;17.370;2022-11-20T05:09:46;50.23;;;23.30;;
34695;SDS011;20918;51.138;17.370;2022-11-20T05:12:51;54.33;;;25.90;;
34695;SDS011;20918;51.138;17.370;2022-11-20T05:15:52;57.67;;;27.27;;
34695;SDS011;20918;51.138;17.370;2022-11-20T05:18:54;53.03;;;25.20;;
34695;SDS011;20918;51.138;17.370;2022-11-20T05:21:56;55.77;;;24.17;;
34695;SDS011;20918;51.138;17.370;2022-11-20T05:24:57;58.40;;;25.70;;
34695;SDS011;20918;51.138;17.370;2022-11-20T05:27:58;58.03;;;28.03;;
34695;SDS011;20918;51.138;17.370;2022-11-20T05:31:05;55.33;;;25.73;;
34695;SDS011;20918;51.138;17.370;2022-11-20T05:34:12;64.85;;;29.12;;
34695;SDS011;20918;51.138;17.370;2022-11-20T05:37:16;71.30;;;29.73;;
34695;SDS011;20918;51.138;17.370;2022-11-20T05:40:17;65.53;;;29.90;;
34695;SDS011;20918;51.138;17.370;2022-11-20T05:43:20;57.70;;;27.27;;
34695;SDS011;20918;51.138;17.370;2022-11-20T05:46:21;57.27;;;26.97;;
34695;SDS011;20918;51.138;17.370;2022-11-20T05:49:22;63.03;;;27.60;;
34695;SDS011;20918;51.138;17.370;2022-11-20T05:52:23;60.27;;;27.47;;
34695;SDS011;20918;51.138;17.370;2022-11-20T05:55:25;59.37;;;26.97;;
34695;SDS011;20918;51.138;17.370;2022-11-20T05:58:27;59.47;;;29.70;;
34695;SDS011;20918;51.138;17.370;2022-11-20T06:01:30;64.43;;;28.77;;
34695;SDS011;20918;51.138;17.370;2022-11-20T06:04:31;63.53;;;28.23;;
34695;SDS011;20918;51.138;17.370;2022-11-20T06:07:33;60.17;;;28.97;;
34695;SDS011;20918;51.138;17.370;2022-11-20T06:10:36;58.87;;;27.17;;
34695;SDS011;20918;51.138;17.370;2022-11-20T06:13:36;58.30;;;25.73;;
34695;SDS011;20918;51.138;17.370;2022-11-20T06:16:40;53.57;;;25.90;;
34695;SDS011;20918;51.138;17.370;2022-11-20T06:19:41;56.67;;;26.83;;
34695;SDS011;20918;51.138;17.370;2022-11-20T06:22:43;57.80;;;26.73;;
34695;SDS011;20918;51.138;17.370;2022-11-20T06:25:45;66.17;;;29.60;;
34695;SDS011;20918;51.138;17.370;2022-11-20T06:28:47;65.33;;;31.10;;
34695;SDS011;20918;51.138;17.370;2022-11-20T06:31:49;61.83;;;28.97;;
34695;SDS011;20918;51.138;17.370;2022-11-20T06:34:53;66.67;;;31.90;;
34695;SDS011;20918;51.138;17.370;2022-11-20T06:37:55;82.37;;;38.97;;
34695;SDS011;20918;51.138;17.370;2022-11-20T06:40:57;78.10;;;37.90;;
34695;SDS011;20918;51.138;17.370;2022-11-20T06:44:03;77.37;;;35.70;;
34695;SDS011;20918;51.138;17.370;2022-11-20T06:47:05;70.57;;;29.80;;
34695;SDS011;20918;51.138;17.370;2022-11-20T06:50:08;64.57;;;30.23;;
34695;SDS011;20918;51.138;17.370;2022-11-20T06:53:09;63.60;;;30.00;;
34695;SDS011;20918;51.138;17.370;2022-11-20T06:56:10;58.97;;;29.33;;
34695;SDS011;20918;51.138;17.370;2022-11-20T06:59:12;55.90;;;27.13;;
34695;SDS011;20918;51.138;17.370;2022-11-20T07:02:13;57.97;;;27.20;;
34695;SDS011;20918;51.138;17.370;2022-11-20T07:05:15;55.90;;;26.83;;
34695;SDS011;20918;51.138;17.370;2022-11-20T07:08:18;58.13;;;28.53;;
34695;SDS011;20918;51.138;17.370;2022-11-20T07:11:19;58.73;;;27.23;;
34695;SDS011;20918;51.138;17.370;2022-11-20T07:14:20;54.10;;;25.57;;
34695;SDS011;20918;51.138;17.370;2022-11-20T07:17:23;52.67;;;27.17;;
34695;SDS011;20918;51.138;17.370;2022-11-20T07:20:24;58.80;;;28.60;;
34695;SDS011;20918;51.138;17.370;2022-11-20T07:23:25;55.83;;;28.13;;
34695;SDS011;20918;51.138;17.370;2022-11-20T07:26:26;54.77;;;29.00;;
34695;SDS011;20918;51.138;17.370;2022-11-20T07:29:27;59.97;;;28.23;;
34695;SDS011;20918;51.138;17.370;2022-11-20T07:32:29;61.43;;;28.77;;
34695;SDS011;20918;51.138;17.370;2022-11-20T07:35:33;59.00;;;29.65;;
34695;SDS011;20918;51.138;17.370;2022-11-20T07:38:37;61.53;;;29.87;;
34695;SDS011;20918;51.138;17.370;2022-11-20T07:41:39;57.70;;;28.90;;
34695;SDS011;20918;51.138;17.370;2022-11-20T07:44:40;69.10;;;31.20;;
34695;SDS011;20918;51.138;17.370;2022-11-20T07:47:41;55.10;;;26.70;;
34695;SDS011;20918;51.138;17.370;2022-11-20T07:50:42;63.65;;;30.62;;
34695;SDS011;20918;51.138;17.370;2022-11-20T07:53:43;62.03;;;31.90;;
34695;SDS011;20918;51.138;17.370;2022-11-20T07:56:44;63.75;;;31.10;;
34695;SDS011;20918;51.138;17.370;2022-11-20T07:59:45;61.20;;;30.57;;
34695;SDS011;20918;51.138;17.370;2022-11-20T08:02:46;61.40;;;30.43;;
34695;SDS011;20918;51.138;17.370;2022-11-20T08:05:47;63.85;;;29.20;;
34695;SDS011;20918;51.138;17.370;2022-11-20T08:08:48;56.68;;;28.65;;
34695;SDS011;20918;51.138;17.370;2022-11-20T08:11:49;60.38;;;30.62;;
34695;SDS011;20918;51.138;17.370;2022-11-20T08:15:09;62.90;;;29.02;;
34695;SDS011;20918;51.138;17.370;2022-11-20T08:18:10;60.25;;;30.88;;
34695;SDS011;20918;51.138;17.370;2022-11-20T08:21:12;59.65;;;30.23;;
34695;SDS011;20918;51.138;17.370;2022-11-20T08:24:13;57.48;;;29.27;;
34695;SDS011;20918;51.138;17.370;2022-11-20T08:27:14;55.35;;;28.15;;
34695;SDS011;20918;51.138;17.370;2022-11-20T08:30:15;54.38;;;27.73;;
34695;SDS011;20918;51.138;17.370;2022-11-20T08:33:17;56.85;;;29.12;;
34695;SDS011;20918;51.138;17.370;2022-11-20T08:36:19;51.98;;;28.42;;
34695;SDS011;20918;51.138;17.370;2022-11-20T08:39:22;52.50;;;28.85;;
34695;SDS011;20918;51.138;17.370;2022-11-20T08:42:23;53.58;;;29.00;;
34695;SDS011;20918;51.138;17.370;2022-11-20T08:45:24;50.52;;;27.05;;
34695;SDS011;20918;51.138;17.370;2022-11-20T08:48:25;52.45;;;28.15;;
34695;SDS011;20918;51.138;17.370;2022-11-20T08:51:26;51.90;;;27.82;;
34695;SDS011;20918;51.138;17.370;2022-11-20T08:54:27;54.95;;;27.87;;
34695;SDS011;20918;51.138;17.370;2022-11-20T08:57:30;49.48;;;27.93;;
34695;SDS011;20918;51.138;17.370;2022-11-20T09:00:33;50.70;;;27.02;;
34695;SDS011;20918;51.138;17.370;2022-11-20T09:03:34;50.48;;;27.95;;
34695;SDS011;20918;51.138;17.370;2022-11-20T09:06:35;49.15;;;26.70;;
34695;SDS011;20918;51.138;17.370;2022-11-20T09:09:37;45.60;;;25.50;;
34695;SDS011;20918;51.138;17.370;2022-11-20T09:12:38;44.38;;;25.08;;
34695;SDS011;20918;51.138;17.370;2022-11-20T09:15:39;45.75;;;26.07;;
34695;SDS011;20918;51.138;17.370;2022-11-20T09:21:42;44.35;;;24.47;;
34695;SDS011;20918;51.138;17.370;2022-11-20T09:24:51;41.83;;;24.50;;
34695;SDS011;20918;51.138;17.370;2022-11-20T09:27:58;43.83;;;24.25;;
34695;SDS011;20918;51.138;17.370;2022-11-20T09:30:59;41.13;;;23.92;;
34695;SDS011;20918;51.138;17.370;2022-11-20T09:34:03;45.48;;;24.87;;
34695;SDS011;20918;51.138;17.370;2022-11-20T09:37:04;44.23;;;25.27;;
34695;SDS011;20918;51.138;17.370;2022-11-20T09:40:05;46.75;;;25.43;;
34695;SDS011;20918;51.138;17.370;2022-11-20T09:46:55;44.00;;;25.05;;
34695;SDS011;20918;51.138;17.370;2022-11-20T09:50:19;41.58;;;24.12;;
34695;SDS011;20918;51.138;17.370;2022-11-20T09:53:44;46.95;;;24.85;;
34695;SDS011;20918;51.138;17.370;2022-11-20T09:57:12;38.98;;;22.50;;
34695;SDS011;20918;51.138;17.370;2022-11-20T10:00:19;43.13;;;22.90;;
34695;SDS011;20918;51.138;17.370;2022-11-20T10:07:11;41.53;;;24.20;;
34695;SDS011;20918;51.138;17.370;2022-11-20T10:10:30;39.92;;;22.95;;
34695;SDS011;20918;51.138;17.370;2022-11-20T10:30:35;41.92;;;22.70;;
34695;SDS011;20918;51.138;17.370;2022-11-20T10:33:42;38.05;;;21.75;;
34695;SDS011;20918;51.138;17.370;2022-11-20T10:36:59;37.13;;;20.10;;
34695;SDS011;20918;51.138;17.370;2022-11-20T10:43:37;39.18;;;21.07;;
34695;SDS011;20918;51.138;17.370;2022-11-20T10:46:40;35.52;;;21.25;;
34695;SDS011;20918;51.138;17.370;2022-11-20T10:49:45;36.38;;;20.57;;
34695;SDS011;20918;51.138;17.370;2022-11-20T10:53:08;38.10;;;19.62;;
34695;SDS011;20918;51.138;17.370;2022-11-20T10:59:55;33.10;;;19.25;;
34695;SDS011;20918;51.138;17.370;2022-11-20T11:03:14;33.58;;;19.45;;
34695;SDS011;20918;51.138;17.370;2022-11-20T11:06:34;32.45;;;19.62;;
34695;SDS011;20918;51.138;17.370;2022-11-20T11:09:39;34.60;;;17.57;;
34695;SDS011;20918;51.138;17.370;2022-11-20T11:12:46;33.02;;;17.70;;
34695;SDS011;20918;51.138;17.370;2022-11-20T11:15:48;31.25;;;18.20;;
34695;SDS011;20918;51.138;17.370;2022-11-20T11:18:49;28.83;;;16.48;;
34695;SDS011;20918;51.138;17.370;2022-11-20T11:21:53;31.30;;;17.50;;
34695;SDS011;20918;51.138;17.370;2022-11-20T11:24:58;31.50;;;18.35;;
34695;SDS011;20918;51.138;17.370;2022-11-20T11:28:05;28.23;;;16.60;;
34695;SDS011;20918;51.138;17.370;2022-11-20T11:31:05;30.88;;;17.07;;
34695;SDS011;20918;51.138;17.370;2022-11-20T11:34:16;23.32;;;13.62;;
34695;SDS011;20918;51.138;17.370;2022-11-20T11:37:18;26.68;;;15.32;;
34695;SDS011;20918;51.138;17.370;2022-11-20T11:40:22;26.42;;;15.35;;
34695;SDS011;20918;51.138;17.370;2022-11-20T11:43:24;24.70;;;14.28;;
34695;SDS011;20918;51.138;17.370;2022-11-20T11:46:52;24.50;;;14.65;;
34695;SDS011;20918;51.138;17.370;2022-11-20T11:53:23;21.35;;;12.45;;
34695;SDS011;20918;51.138;17.370;2022-11-20T11:56:28;23.42;;;12.78;;
34695;SDS011;20918;51.138;17.370;2022-11-20T12:06:36;21.75;;;12.65;;
34695;SDS011;20918;51.138;17.370;2022-11-20T12:09:42;20.02;;;12.73;;
34695;SDS011;20918;51.138;17.370;2022-11-20T12:12:48;24.80;;;13.70;;
34695;SDS011;20918;51.138;17.370;2022-11-20T12:19:00;28.92;;;14.18;;
34695;SDS011;20918;51.138;17.370;2022-11-20T12:22:09;22.15;;;14.20;;
34695;SDS011;20918;51.138;17.370;2022-11-20T12:25:32;23.10;;;14.65;;
34695;SDS011;20918;51.138;17.370;2022-11-20T12:35:21;23.65;;;13.30;;
34695;SDS011;20918;51.138;17.370;2022-11-20T12:42:22;27.03;;;14.20;;
34695;SDS011;20918;51.138;17.370;2022-11-20T12:46:00;22.55;;;13.13;;
34695;SDS011;20918;51.138;17.370;2022-11-20T12:53:00;22.35;;;13.35;;
34695;SDS011;20918;51.138;17.370;2022-11-20T13:00:13;25.05;;;12.98;;
34695;SDS011;20918;51.138;17.370;2022-11-20T13:06:48;24.40;;;12.75;;
34695;SDS011;20918;51.138;17.370;2022-11-20T13:09:51;24.25;;;13.88;;
34695;SDS011;20918;51.138;17.370;2022-11-20T13:12:58;21.17;;;13.75;;
34695;SDS011;20918;51.138;17.370;2022-11-20T13:16:18;22.05;;;13.18;;
34695;SDS011;20918;51.138;17.370;2022-11-20T13:19:34;24.10;;;14.25;;
34695;SDS011;20918;51.138;17.370;2022-11-20T13:22:48;23.32;;;13.83;;
34695;SDS011;20918;51.138;17.370;2022-11-20T13:26:02;24.03;;;13.63;;
34695;SDS011;20918;51.138;17.370;2022-11-20T13:29:17;19.30;;;12.80;;
34695;SDS011;20918;51.138;17.370;2022-11-20T13:32:20;20.65;;;12.55;;
34695;SDS011;20918;51.138;17.370;2022-11-20T13:38:49;22.32;;;12.50;;
34695;SDS011;20918;51.138;17.370;2022-11-20T13:41:59;26.17;;;14.53;;
34695;SDS011;20918;51.138;17.370;2022-11-20T13:45:09;21.77;;;12.43;;
34695;SDS011;20918;51.138;17.370;2022-11-20T13:48:18;19.77;;;12.20;;
34695;SDS011;20918;51.138;17.370;2022-11-20T13:54:39;24.25;;;13.88;;
34695;SDS011;20918;51.138;17.370;2022-11-20T14:00:55;21.02;;;12.35;;
34695;SDS011;20918;51.138;17.370;2022-11-20T14:03:59;22.95;;;13.20;;
34695;SDS011;20918;51.138;17.370;2022-11-20T14:07:00;24.35;;;13.95;;
34695;SDS011;20918;51.138;17.370;2022-11-20T14:10:02;26.15;;;14.30;;
34695;SDS011;20918;51.138;17.370;2022-11-20T14:13:37;24.50;;;13.58;;
34695;SDS011;20918;51.138;17.370;2022-11-20T14:16:20;29.10;;;16.23;;
34695;SDS011;20918;51.138;17.370;2022-11-20T14:19:28;30.82;;;17.92;;
34695;SDS011;20918;51.138;17.370;2022-11-20T14:22:32;25.63;;;16.33;;
34695;SDS011;20918;51.138;17.370;2022-11-20T14:25:33;24.02;;;15.05;;
34695;SDS011;20918;51.138;17.370;2022-11-20T14:28:34;23.47;;;14.40;;
34695;SDS011;20918;51.138;17.370;2022-11-20T14:31:36;22.82;;;13.78;;
34695;SDS011;20918;51.138;17.370;2022-11-20T14:34:38;23.60;;;14.43;;
34695;SDS011;20918;51.138;17.370;2022-11-20T14:37:40;26.00;;;14.38;;
34695;SDS011;20918;51.138;17.370;2022-11-20T14:40:42;26.07;;;14.15;;
34695;SDS011;20918;51.138;17.370;2022-11-20T14:43:47;25.45;;;13.78;;
34695;SDS011;20918;51.138;17.370;2022-11-20T14:47:00;25.57;;;14.28;;
34695;SDS011;20918;51.138;17.370;2022-11-20T14:50:03;31.15;;;16.48;;
34695;SDS011;20918;51.138;17.370;2022-11-20T14:53:21;30.43;;;16.65;;
34695;SDS011;20918;51.138;17.370;2022-11-20T14:56:24;32.25;;;16.75;;
34695;SDS011;20918;51.138;17.370;2022-11-20T14:59:26;31.95;;;16.87;;
34695;SDS011;20918;51.138;17.370;2022-11-20T15:02:31;31.05;;;18.32;;
34695;SDS011;20918;51.138;17.370;2022-11-20T15:05:46;27.82;;;17.42;;
34695;SDS011;20918;51.138;17.370;2022-11-20T15:08:51;30.27;;;17.48;;
34695;SDS011;20918;51.138;17.370;2022-11-20T15:12:01;30.88;;;17.85;;
34695;SDS011;20918;51.138;17.370;2022-11-20T15:15:02;28.85;;;16.23;;
34695;SDS011;20918;51.138;17.370;2022-11-20T15:18:09;38.25;;;20.02;;
34695;SDS011;20918;51.138;17.370;2022-11-20T15:21:14;41.15;;;21.35;;
34695;SDS011;20918;51.138;17.370;2022-11-20T15:24:18;46.77;;;23.47;;
34695;SDS011;20918;51.138;17.370;2022-11-20T15:27:20;49.08;;;27.77;;
34695;SDS011;20918;51.138;17.370;2022-11-20T15:30:21;47.40;;;26.65;;
34695;SDS011;20918;51.138;17.370;2022-11-20T15:33:23;40.23;;;22.00;;
34695;SDS011;20918;51.138;17.370;2022-11-20T15:36:25;39.50;;;21.30;;
34695;SDS011;20918;51.138;17.370;2022-11-20T15:39:26;32.42;;;18.92;;
34695;SDS011;20918;51.138;17.370;2022-11-20T15:42:27;41.68;;;21.10;;
34695;SDS011;20918;51.138;17.370;2022-11-20T15:45:29;44.98;;;24.00;;
34695;SDS011;20918;51.138;17.370;2022-11-20T15:48:35;52.73;;;25.27;;
34695;SDS011;20918;51.138;17.370;2022-11-20T15:51:43;44.25;;;22.93;;
34695;SDS011;20918;51.138;17.370;2022-11-20T15:54:49;49.95;;;26.82;;
34695;SDS011;20918;51.138;17.370;2022-11-20T15:57:51;59.40;;;31.70;;
34695;SDS011;20918;51.138;17.370;2022-11-20T16:00:52;51.25;;;27.93;;
34695;SDS011;20918;51.138;17.370;2022-11-20T16:03:54;51.85;;;28.83;;
34695;SDS011;20918;51.138;17.370;2022-11-20T16:06:55;238.50;;;103.55;;
34695;SDS011;20918;51.138;17.370;2022-11-20T16:09:57;79.22;;;34.58;;
34695;SDS011;20918;51.138;17.370;2022-11-20T16:12:58;349.90;;;126.80;;
34695;SDS011;20918;51.138;17.370;2022-11-20T16:16:21;114.55;;;44.75;;
34695;SDS011;20918;51.138;17.370;2022-11-20T16:19:29;247.02;;;89.85;;
34695;SDS011;20918;51.138;17.370;2022-11-20T16:22:30;124.00;;;52.10;;
34695;SDS011;20918;51.138;17.370;2022-11-20T16:25:36;147.28;;;67.22;;
34695;SDS011;20918;51.138;17.370;2022-11-20T16:28:38;125.20;;;55.78;;
34695;SDS011;20918;51.138;17.370;2022-11-20T16:31:41;98.30;;;43.78;;
34695;SDS011;20918;51.138;17.370;2022-11-20T16:34:42;97.80;;;42.45;;
34695;SDS011;20918;51.138;17.370;2022-11-20T16:37:46;81.35;;;37.20;;
34695;SDS011;20918;51.138;17.370;2022-11-20T16:40:47;84.70;;;37.60;;
34695;SDS011;20918;51.138;17.370;2022-11-20T16:43:49;82.42;;;37.30;;
34695;SDS011;20918;51.138;17.370;2022-11-20T16:46:53;79.87;;;35.52;;
34695;SDS011;20918;51.138;17.370;2022-11-20T16:49:57;102.47;;;44.58;;
34695;SDS011;20918;51.138;17.370;2022-11-20T16:53:00;68.70;;;32.10;;
34695;SDS011;20918;51.138;17.370;2022-11-20T16:56:14;55.15;;;28.85;;
34695;SDS011;20918;51.138;17.370;2022-11-20T16:59:17;56.60;;;28.50;;
34695;SDS011;20918;51.138;17.370;2022-11-20T17:02:21;57.70;;;29.37;;
34695;SDS011;20918;51.138;17.370;2022-11-20T17:05:22;51.53;;;26.15;;
34695;SDS011;20918;51.138;17.370;2022-11-20T17:08:27;55.73;;;26.02;;
34695;SDS011;20918;51.138;17.370;2022-11-20T17:11:29;57.38;;;28.10;;
34695;SDS011;20918;51.138;17.370;2022-11-20T17:14:32;64.45;;;34.43;;
34695;SDS011;20918;51.138;17.370;2022-11-20T17:17:33;64.40;;;30.77;;
34695;SDS011;20918;51.138;17.370;2022-11-20T17:20:38;71.67;;;31.37;;
34695;SDS011;20918;51.138;17.370;2022-11-20T17:23:41;79.40;;;34.92;;
34695;SDS011;20918;51.138;17.370;2022-11-20T17:26:44;75.25;;;34.25;;
34695;SDS011;20918;51.138;17.370;2022-11-20T17:29:48;81.40;;;36.28;;
34695;SDS011;20918;51.138;17.370;2022-11-20T17:32:51;72.20;;;32.95;;
34695;SDS011;20918;51.138;17.370;2022-11-20T17:36:06;79.37;;;34.75;;
34695;SDS011;20918;51.138;17.370;2022-11-20T17:38:58;75.22;;;34.10;;
34695;SDS011;20918;51.138;17.370;2022-11-20T17:42:00;69.95;;;32.23;;
34695;SDS011;20918;51.138;17.370;2022-11-20T17:45:20;87.42;;;38.78;;
34695;SDS011;20918;51.138;17.370;2022-11-20T17:48:21;73.50;;;32.35;;
34695;SDS011;20918;51.138;17.370;2022-11-20T17:51:23;158.22;;;49.58;;
34695;SDS011;20918;51.138;17.370;2022-11-20T17:54:28;140.75;;;45.38;;
34695;SDS011;20918;51.138;17.370;2022-11-20T17:57:32;196.20;;;57.62;;
34695;SDS011;20918;51.138;17.370;2022-11-20T18:00:53;173.10;;;52.20;;
34695;SDS011;20918;51.138;17.370;2022-11-20T18:03:55;138.92;;;44.83;;
34695;SDS011;20918;51.138;17.370;2022-11-20T18:06:56;132.10;;;47.45;;
34695;SDS011;20918;51.138;17.370;2022-11-20T18:09:57;137.72;;;45.03;;
34695;SDS011;20918;51.138;17.370;2022-11-20T18:12:58;137.15;;;47.65;;
34695;SDS011;20918;51.138;17.370;2022-11-20T18:16:06;127.05;;;46.45;;
34695;SDS011;20918;51.138;17.370;2022-11-20T18:19:10;123.03;;;44.40;;
34695;SDS011;20918;51.138;17.370;2022-11-20T18:22:15;130.27;;;46.83;;
34695;SDS011;20918;51.138;17.370;2022-11-20T18:25:19;123.53;;;43.78;;
34695;SDS011;20918;51.138;17.370;2022-11-20T18:28:20;127.12;;;47.00;;
34695;SDS011;20918;51.138;17.370;2022-11-20T18:31:23;98.58;;;41.85;;
34695;SDS011;20918;51.138;17.370;2022-11-20T18:34:24;101.30;;;41.98;;
34695;SDS011;20918;51.138;17.370;2022-11-20T18:37:29;102.75;;;42.35;;
34695;SDS011;20918;51.138;17.370;2022-11-20T18:40:33;88.17;;;43.20;;
34695;SDS011;20918;51.138;17.370;2022-11-20T18:43:36;87.92;;;37.53;;
34695;SDS011;20918;51.138;17.370;2022-11-20T18:46:55;80.22;;;34.33;;
34695;SDS011;20918;51.138;17.370;2022-11-20T18:49:57;75.87;;;34.40;;
34695;SDS011;20918;51.138;17.370;2022-11-20T18:53:00;75.57;;;35.70;;
34695;SDS011;20918;51.138;17.370;2022-11-20T18:56:05;74.82;;;33.85;;
34695;SDS011;20918;51.138;17.370;2022-11-20T18:59:08;78.75;;;36.35;;
34695;SDS011;20918;51.138;17.370;2022-11-20T19:02:16;75.03;;;34.65;;
34695;SDS011;20918;51.138;17.370;2022-11-20T19:05:16;70.55;;;32.33;;
34695;SDS011;20918;51.138;17.370;2022-11-20T19:08:17;73.90;;;34.25;;